createdAt,value
2023-08-10T00:02:02.576Z,76.68
2023-08-10T00:04:31.332Z,77.22
2023-08-10T00:06:59.548Z,76.91
2023-08-10T00:09:27.994Z,76.92
2023-08-10T00:11:56.392Z,77.03
2023-08-10T00:14:24.752Z,77.11
2023-08-10T00:16:53.342Z,77.03
2023-08-10T00:19:23.046Z,77.11
2023-08-10T00:21:51.303Z,77.06
2023-08-10T00:24:19.670Z,76.96
2023-08-10T00:26:48.075Z,76.40
2023-08-10T00:29:16.551Z,76.76
2023-08-10T00:31:44.808Z,76.83
2023-08-10T00:34:13.824Z,76.73
2023-08-10T00:36:47.233Z,76.70
2023-08-10T00:39:15.549Z,76.40
2023-08-10T00:41:44.179Z,76.66
2023-08-10T00:44:12.996Z,76.77
2023-08-10T00:46:41.403Z,76.70
2023-08-10T00:49:10.756Z,76.24
2023-08-10T00:51:39.950Z,76.17
2023-08-10T00:54:10.072Z,76.36
2023-08-10T00:56:38.240Z,76.47
2023-08-10T00:59:07.019Z,76.27
2023-08-10T01:01:37.008Z,76.53
2023-08-10T01:04:06.338Z,76.86
2023-08-10T01:06:42.908Z,76.45
2023-08-10T01:09:18.300Z,76.99
2023-08-10T01:11:58.864Z,77.24
2023-08-10T01:14:36.104Z,77.32
2023-08-10T01:17:10.419Z,77.06
2023-08-10T01:19:41.251Z,77.08
2023-08-10T01:22:20.360Z,77.10
2023-08-10T01:25:01.741Z,77.25
2023-08-10T01:27:31.896Z,77.18
2023-08-10T01:30:01.445Z,77.33
2023-08-10T01:32:31.026Z,77.44
2023-08-10T01:35:00.415Z,77.26
2023-08-10T01:37:29.312Z,77.42
2023-08-10T01:39:59.005Z,77.54
2023-08-10T01:42:27.792Z,77.65
2023-08-10T01:44:56.053Z,77.52
2023-08-10T01:47:30.170Z,77.50
2023-08-10T01:50:01.931Z,77.76
2023-08-10T01:52:36.037Z,77.57
2023-08-10T01:55:08.702Z,77.85
2023-08-10T01:57:38.466Z,77.60
2023-08-10T02:00:09.135Z,77.28
2023-08-10T02:02:48.680Z,77.43
2023-08-10T02:05:17.922Z,77.36
2023-08-10T02:07:50.150Z,77.57
2023-08-10T02:10:20.401Z,77.09
2023-08-10T02:12:48.672Z,77.12
2023-08-10T02:15:17.554Z,77.25
2023-08-10T02:17:46.157Z,77.53
2023-08-10T02:20:15.457Z,77.73
2023-08-10T02:22:45.261Z,78.11
2023-08-10T02:25:13.913Z,78.05
2023-08-10T02:27:44.170Z,77.98
2023-08-10T02:30:14.049Z,78.00
2023-08-10T02:32:46.095Z,77.73
2023-08-10T02:35:15.697Z,77.73
2023-08-10T02:37:44.520Z,77.36
2023-08-10T02:40:14.032Z,77.57
2023-08-10T02:42:44.842Z,77.63
2023-08-10T02:45:14.170Z,77.42
2023-08-10T02:47:42.387Z,77.45
2023-08-10T02:50:12.735Z,77.47
2023-08-10T02:52:41.468Z,77.63
2023-08-10T02:55:12.364Z,77.56
2023-08-10T02:57:43.608Z,77.55
2023-08-10T03:00:13.859Z,77.20
2023-08-10T03:02:42.121Z,77.22
2023-08-10T03:05:13.458Z,77.12
2023-08-10T03:07:41.813Z,77.12
2023-08-10T03:10:11.347Z,77.29
2023-08-10T03:12:41.279Z,77.19
2023-08-10T03:15:13.178Z,77.39
2023-08-10T03:17:42.684Z,77.52
2023-08-10T03:20:18.296Z,77.64
2023-08-10T03:22:48.582Z,77.97
2023-08-10T03:25:16.876Z,77.97
2023-08-10T03:27:46.720Z,77.97
2023-08-10T03:30:19.859Z,77.88
2023-08-10T03:32:48.892Z,78.24
2023-08-10T03:35:17.660Z,78.02
2023-08-10T03:37:47.202Z,78.26
2023-08-10T03:40:15.635Z,78.53
2023-08-10T03:42:43.795Z,78.47
2023-08-10T03:45:12.759Z,78.60
2023-08-10T03:47:43.160Z,78.68
2023-08-10T03:50:13.451Z,78.31
2023-08-10T03:52:41.912Z,78.41
2023-08-10T03:55:13.887Z,78.44
2023-08-10T03:57:42.970Z,78.25
2023-08-10T04:00:13.215Z,78.26
2023-08-10T04:02:50.571Z,77.48
2023-08-10T04:05:23.281Z,77.42
2023-08-10T04:07:52.115Z,77.06
2023-08-10T04:10:21.368Z,77.02
2023-08-10T04:12:49.817Z,77.24
2023-08-10T04:15:18.308Z,77.28
2023-08-10T04:17:46.788Z,77.57
2023-08-10T04:20:16.746Z,77.70
2023-08-10T04:22:45.352Z,77.21
2023-08-10T04:25:13.520Z,77.06
2023-08-10T04:27:41.889Z,76.75
2023-08-10T04:30:11.739Z,76.48
2023-08-10T04:32:40.304Z,76.27
2023-08-10T04:35:09.038Z,75.70
2023-08-10T04:37:38.999Z,75.47
2023-08-10T04:40:11.405Z,75.17
2023-08-10T04:42:41.998Z,75.27
2023-08-10T04:45:12.727Z,75.41
2023-08-10T04:47:41.869Z,73.92
2023-08-10T04:50:11.905Z,72.91
2023-08-10T04:52:43.341Z,72.95
2023-08-10T04:55:13.669Z,72.93
2023-08-10T04:57:42.435Z,72.06
2023-08-10T05:00:12.560Z,72.13
2023-08-10T05:02:41.760Z,72.31
2023-08-10T05:05:12.088Z,72.08
2023-08-10T05:07:42.359Z,71.42
2023-08-10T05:10:11.957Z,70.57
2023-08-10T05:12:40.565Z,69.74
2023-08-10T05:15:11.802Z,69.10
2023-08-10T05:17:40.865Z,68.31
2023-08-10T05:20:13.354Z,67.77
2023-08-10T05:22:44.763Z,66.60
2023-08-10T05:25:18.859Z,66.50
2023-08-10T05:27:47.825Z,66.11
2023-08-10T05:30:17.101Z,65.72
2023-08-10T05:32:46.360Z,64.98
2023-08-10T05:35:16.397Z,63.86
2023-08-10T05:37:46.487Z,60.47
2023-08-10T05:40:15.486Z,61.11
2023-08-10T05:42:45.170Z,60.31
2023-08-10T05:45:16.848Z,58.54
2023-08-10T05:47:47.221Z,58.96
2023-08-10T05:50:16.364Z,59.79
2023-08-10T05:52:47.731Z,57.88
2023-08-10T05:55:16.821Z,58.69
2023-08-10T05:57:45.562Z,59.71
2023-08-10T06:00:15.488Z,60.73
2023-08-10T06:02:44.538Z,61.01
2023-08-10T06:05:14.630Z,62.94
2023-08-10T06:07:48.873Z,63.39
2023-08-10T06:10:18.414Z,63.71
2023-08-10T06:12:47.204Z,62.55
2023-08-10T06:15:16.339Z,62.25
2023-08-10T06:17:44.733Z,61.23
2023-08-10T06:20:18.395Z,61.90
2023-08-10T06:22:49.035Z,61.28
2023-08-10T06:25:18.656Z,59.82
2023-08-10T06:27:50.703Z,58.07
2023-08-10T06:30:20.918Z,56.61
2023-08-10T06:32:49.429Z,58.71
2023-08-10T06:35:17.958Z,57.59
2023-08-10T06:37:46.558Z,57.72
2023-08-10T06:40:16.908Z,56.09
2023-08-10T06:42:45.570Z,55.31
2023-08-10T06:45:19.667Z,55.00
2023-08-10T06:47:50.655Z,54.87
2023-08-10T06:50:19.191Z,54.81
2023-08-10T06:52:47.445Z,53.64
2023-08-10T06:55:17.619Z,54.12
2023-08-10T06:57:48.569Z,53.04
2023-08-10T07:02:56.248Z,49.20
2023-08-10T07:05:27.583Z,39.50
2023-08-10T07:07:57.643Z,33.16
2023-08-10T07:10:27.799Z,31.05
2023-08-10T07:12:56.205Z,29.43
2023-08-10T07:15:24.661Z,29.13
2023-08-10T07:17:53.397Z,28.68
2023-08-10T07:20:21.749Z,28.82
2023-08-10T07:22:50.405Z,28.34
2023-08-10T07:25:20.510Z,28.46
2023-08-10T07:27:51.249Z,30.05
2023-08-10T07:30:19.681Z,30.11
2023-08-10T07:32:47.923Z,28.79
2023-08-10T07:35:17.227Z,28.65
2023-08-10T07:37:46.531Z,26.90
2023-08-10T07:40:14.730Z,27.26
2023-08-10T07:42:43.273Z,26.48
2023-08-10T07:45:13.562Z,26.31
2023-08-10T07:47:42.721Z,28.49
2023-08-10T07:50:12.212Z,27.69
2023-08-10T07:52:40.514Z,27.89
2023-08-10T07:55:09.918Z,28.00
2023-08-10T07:57:38.288Z,27.95
2023-08-10T08:00:08.663Z,28.19
2023-08-10T08:02:45.097Z,27.48
2023-08-10T08:05:13.978Z,28.32
2023-08-10T08:07:42.516Z,28.93
2023-08-10T08:10:11.895Z,27.06
2023-08-10T08:12:42.040Z,28.57
2023-08-10T08:15:12.141Z,28.34
2023-08-10T08:18:18.008Z,29.02
2023-08-10T08:20:47.809Z,30.65
2023-08-10T08:23:16.303Z,28.27
2023-08-10T08:25:44.797Z,29.22
2023-08-10T08:28:13.158Z,28.16
2023-08-10T08:30:41.536Z,27.21
2023-08-10T08:33:11.217Z,26.03
2023-08-10T08:35:39.839Z,26.79
2023-08-10T08:38:09.677Z,24.93
2023-08-10T08:40:41.076Z,25.92
2023-08-10T08:43:10.166Z,26.99
2023-08-10T08:45:38.684Z,27.49
2023-08-10T08:48:09.285Z,26.89
2023-08-10T08:50:39.318Z,26.41
2023-08-10T08:53:12.013Z,26.96
2023-08-10T08:55:41.077Z,33.90
2023-08-10T08:58:09.992Z,29.98
2023-08-10T09:00:38.211Z,28.64
2023-08-10T09:03:07.481Z,26.53
2023-08-10T09:05:36.532Z,27.94
2023-08-10T09:08:05.935Z,26.93
2023-08-10T09:10:36.638Z,25.59
2023-08-10T09:13:12.723Z,27.19
2023-08-10T09:15:40.928Z,25.19
2023-08-10T09:18:09.440Z,26.75
2023-08-10T09:21:08.915Z,29.94
2023-08-10T09:23:37.899Z,30.35
2023-08-10T09:26:11.346Z,29.64
2023-08-10T09:28:39.823Z,28.99
2023-08-10T09:31:10.793Z,27.99
2023-08-10T09:33:41.704Z,29.86
2023-08-10T09:36:11.405Z,32.28
2023-08-10T09:38:42.522Z,33.61
2023-08-10T09:41:14.551Z,31.50
2023-08-10T09:43:44.526Z,28.10
2023-08-10T09:46:15.525Z,25.91
2023-08-10T09:48:46.151Z,28.60
2023-08-10T09:51:15.028Z,29.04
2023-08-10T09:53:43.513Z,29.31
2023-08-10T09:56:13.610Z,27.69
2023-08-10T09:58:43.699Z,27.72
2023-08-10T10:01:16.390Z,27.44
2023-08-10T10:03:47.120Z,26.93
2023-08-10T10:06:18.046Z,25.87
2023-08-10T10:08:55.469Z,25.87
2023-08-10T10:11:31.622Z,26.25
2023-08-10T10:14:00.832Z,26.92
2023-08-10T10:16:31.319Z,29.23
2023-08-10T10:19:00.533Z,30.08
2023-08-10T10:21:32.329Z,28.88
2023-08-10T10:24:04.713Z,29.71
2023-08-10T10:26:34.968Z,29.65
2023-08-10T10:29:13.677Z,28.69
2023-08-10T10:31:42.326Z,27.57
2023-08-10T10:34:14.767Z,27.34
2023-08-10T10:36:43.770Z,31.06
2023-08-10T10:39:13.203Z,33.16
2023-08-10T10:41:44.024Z,32.10
2023-08-10T10:44:12.685Z,31.08
2023-08-10T10:46:44.168Z,28.77
2023-08-10T10:49:16.211Z,28.54
2023-08-10T10:51:50.803Z,30.18
2023-08-10T10:54:19.314Z,28.13
2023-08-10T10:56:49.813Z,29.21
2023-08-10T10:59:18.899Z,27.80
2023-08-10T11:01:50.614Z,28.66
2023-08-10T11:04:21.338Z,29.59
2023-08-10T11:06:50.208Z,29.38
2023-08-10T11:09:20.929Z,29.36
2023-08-10T11:11:51.477Z,30.23
2023-08-10T11:14:19.842Z,30.87
2023-08-10T11:16:49.943Z,33.62
2023-08-10T11:19:19.690Z,32.76
2023-08-10T11:21:53.060Z,34.22
2023-08-10T11:24:21.748Z,34.35
2023-08-10T11:26:53.798Z,34.41
2023-08-10T11:29:22.054Z,32.36
2023-08-10T11:31:53.471Z,33.89
2023-08-10T11:34:31.526Z,31.09
2023-08-10T11:37:00.428Z,30.38
2023-08-10T11:39:28.705Z,28.71
2023-08-10T11:41:58.596Z,30.31
2023-08-10T11:44:28.533Z,30.10
2023-08-10T11:46:59.517Z,29.81
2023-08-10T11:49:30.229Z,31.80
2023-08-10T11:52:04.587Z,30.78
2023-08-10T11:54:35.977Z,30.31
2023-08-10T11:57:22.665Z,32.64
2023-08-10T11:59:51.452Z,30.38
2023-08-10T12:02:20.457Z,32.72
2023-08-10T12:04:50.383Z,30.96
2023-08-10T12:07:25.234Z,30.79
2023-08-10T12:09:54.088Z,30.80
2023-08-10T12:12:26.132Z,31.86
2023-08-10T12:14:56.786Z,32.84
2023-08-10T12:17:24.941Z,33.02
2023-08-10T12:19:53.419Z,33.41
2023-08-10T12:22:22.124Z,32.56
2023-08-10T12:24:50.654Z,32.05
2023-08-10T12:27:19.290Z,32.44
2023-08-10T12:29:49.498Z,31.63
2023-08-10T12:32:18.149Z,31.26
2023-08-10T12:34:46.980Z,33.32
2023-08-10T12:37:15.361Z,33.72
2023-08-10T12:39:43.877Z,33.26
2023-08-10T12:42:12.222Z,32.74
2023-08-10T12:44:40.695Z,32.44
2023-08-10T12:47:10.588Z,33.77
2023-08-10T12:49:39.704Z,34.53
2023-08-10T12:52:08.703Z,35.96
2023-08-10T12:54:37.377Z,33.05
2023-08-10T12:57:07.807Z,31.88
2023-08-10T12:59:36.353Z,31.02
2023-08-10T13:02:04.900Z,31.19
2023-08-10T13:04:35.180Z,33.58
2023-08-10T13:07:03.660Z,32.21
2023-08-10T13:09:31.938Z,31.83
2023-08-10T13:12:00.636Z,32.47
2023-08-10T13:14:29.227Z,34.49
2023-08-10T13:16:57.937Z,34.38
2023-08-10T13:19:26.926Z,34.33
2023-08-10T13:21:56.916Z,33.50
2023-08-10T13:24:25.272Z,32.40
2023-08-10T13:26:53.963Z,31.94
2023-08-10T13:29:22.330Z,31.99
2023-08-10T13:31:50.714Z,32.66
2023-08-10T13:34:19.005Z,32.25
2023-08-10T13:36:47.642Z,32.41
2023-08-10T13:39:20.783Z,30.78
2023-08-10T13:41:49.024Z,32.30
2023-08-10T13:44:19.659Z,31.44
2023-08-10T13:46:48.430Z,30.49
2023-08-10T13:49:16.921Z,30.52
2023-08-10T13:51:45.896Z,32.63
2023-08-10T13:54:14.920Z,34.49
2023-08-10T13:57:04.881Z,33.52
2023-08-10T13:59:36.287Z,33.35
2023-08-10T14:02:04.974Z,33.96
2023-08-10T14:04:33.369Z,34.96
2023-08-10T14:07:01.599Z,35.91
2023-08-10T14:09:30.080Z,33.22
2023-08-10T14:12:00.251Z,32.58
2023-08-10T14:14:28.646Z,31.33
2023-08-10T14:16:57.021Z,30.56
2023-08-10T14:19:25.509Z,31.47
2023-08-10T14:21:54.101Z,31.28
2023-08-10T14:24:22.767Z,33.01
2023-08-10T14:26:51.148Z,32.45
2023-08-10T14:29:20.792Z,31.53
2023-08-10T14:31:49.061Z,32.12
2023-08-10T14:34:17.347Z,34.46
2023-08-10T14:36:45.806Z,30.80
2023-08-10T14:39:15.117Z,34.04
2023-08-10T14:41:43.772Z,34.36
2023-08-10T14:44:13.009Z,33.25
2023-08-10T14:46:42.934Z,31.61
2023-08-10T14:49:11.793Z,32.69
2023-08-10T14:51:40.051Z,34.15
2023-08-10T14:54:09.471Z,34.83
2023-08-10T14:56:38.833Z,35.18
2023-08-10T14:59:07.268Z,35.74
2023-08-10T15:01:36.184Z,36.41
2023-08-10T15:04:10.365Z,37.34
2023-08-10T15:06:39.308Z,35.62
2023-08-10T15:09:10.048Z,36.13
2023-08-10T15:11:38.884Z,36.51
2023-08-10T15:14:07.871Z,34.71
2023-08-10T15:16:36.473Z,33.86
2023-08-10T15:19:06.770Z,33.20
2023-08-10T15:21:34.919Z,31.53
2023-08-10T15:24:03.210Z,31.98
2023-08-10T15:26:31.965Z,31.60
2023-08-10T15:29:01.421Z,32.88
2023-08-10T15:31:30.185Z,32.05
2023-08-10T15:33:58.595Z,34.14
2023-08-10T15:36:28.810Z,33.63
2023-08-10T15:38:57.154Z,33.51
2023-08-10T15:41:25.906Z,31.28
2023-08-10T15:43:54.343Z,31.29
2023-08-10T15:46:23.716Z,30.80
2023-08-10T15:48:52.314Z,31.57
2023-08-10T15:51:22.487Z,32.12
2023-08-10T15:53:52.166Z,33.25
2023-08-10T15:56:21.244Z,32.87
2023-08-10T15:58:49.625Z,35.07
2023-08-10T16:01:17.898Z,33.58
2023-08-10T16:03:46.317Z,35.96
2023-08-10T16:06:14.824Z,34.02
2023-08-10T16:08:43.342Z,38.78
2023-08-10T16:11:13.406Z,37.79
2023-08-10T16:13:41.704Z,40.43
2023-08-10T16:16:09.988Z,42.42
2023-08-10T16:18:38.524Z,42.05
2023-08-10T16:21:06.744Z,42.52
2023-08-10T16:23:35.153Z,43.38
2023-08-10T16:26:04.087Z,44.36
2023-08-10T16:28:34.559Z,41.89
2023-08-10T16:31:03.438Z,36.77
2023-08-10T16:33:31.721Z,36.35
2023-08-10T16:36:01.935Z,35.24
2023-08-10T16:38:30.242Z,34.99
2023-08-10T16:40:59.218Z,35.29
2023-08-10T16:43:28.378Z,35.33
2023-08-10T16:45:58.480Z,34.41
2023-08-10T16:48:27.434Z,35.52
2023-08-10T16:51:21.205Z,36.01
2023-08-10T16:53:50.047Z,35.23
2023-08-10T16:56:20.287Z,37.25
2023-08-10T16:58:49.076Z,36.20
2023-08-10T17:01:19.223Z,36.98
2023-08-10T17:03:47.569Z,39.74
2023-08-10T17:06:15.948Z,39.69
2023-08-10T17:08:44.151Z,41.67
2023-08-10T17:11:12.787Z,42.77
2023-08-10T17:13:41.969Z,41.20
2023-08-10T17:16:10.415Z,42.91
2023-08-10T17:18:40.486Z,42.75
2023-08-10T17:21:08.768Z,44.80
2023-08-10T17:23:36.988Z,45.93
2023-08-10T17:26:05.730Z,47.62
2023-08-10T17:28:34.258Z,49.09
2023-08-10T17:31:03.419Z,50.57
2023-08-10T17:33:31.934Z,51.62
2023-08-10T17:36:02.189Z,52.33
2023-08-10T17:38:30.922Z,51.83
2023-08-10T17:40:59.165Z,51.35
2023-08-10T17:43:27.980Z,51.64
2023-08-10T17:45:56.725Z,52.07
2023-08-10T17:48:25.242Z,53.04
2023-08-10T17:50:54.016Z,52.77
2023-08-10T17:53:24.450Z,53.04
2023-08-10T17:55:54.055Z,53.77
2023-08-10T17:58:22.811Z,55.08
2023-08-10T18:00:52.241Z,54.86
2023-08-10T18:03:21.157Z,56.27
2023-08-10T18:05:49.414Z,56.48
2023-08-10T18:08:17.954Z,57.37
2023-08-10T18:10:51.445Z,56.92
2023-08-10T18:13:20.477Z,57.44
2023-08-10T18:15:49.584Z,57.94
2023-08-10T18:18:18.952Z,59.38
2023-08-10T18:20:47.245Z,58.77
2023-08-10T18:23:16.686Z,59.19
2023-08-10T18:25:45.246Z,59.90
2023-08-10T18:28:15.567Z,60.04
2023-08-10T18:30:44.599Z,60.69
2023-08-10T18:33:13.593Z,61.08
2023-08-10T18:35:42.540Z,60.81
2023-08-10T18:38:11.229Z,62.01
2023-08-10T18:40:40.960Z,61.85
2023-08-10T18:43:09.848Z,62.46
2023-08-10T18:45:40.271Z,63.11
2023-08-10T18:48:09.519Z,62.84
2023-08-10T18:50:37.889Z,63.89
2023-08-10T18:53:09.579Z,63.99
2023-08-10T18:55:38.612Z,64.50
2023-08-10T18:58:06.917Z,65.07
2023-08-10T19:00:40.791Z,65.05
2023-08-10T19:03:09.450Z,64.93
2023-08-10T19:05:37.756Z,64.02
2023-08-10T19:08:06.623Z,65.44
2023-08-10T19:10:34.644Z,64.54
2023-08-10T19:13:02.875Z,64.48
2023-08-10T19:15:31.496Z,65.07
2023-08-10T19:18:01.352Z,65.48
2023-08-10T19:20:29.729Z,65.40
2023-08-10T19:22:58.103Z,65.80
2023-08-10T19:25:26.236Z,65.60
2023-08-10T19:27:54.955Z,65.84
2023-08-10T19:30:23.306Z,66.05
2023-08-10T19:32:52.568Z,66.12
2023-08-10T19:35:22.331Z,66.06
2023-08-10T19:37:50.597Z,66.23
2023-08-10T19:40:19.599Z,66.99
2023-08-10T19:42:49.074Z,66.70
2023-08-10T19:45:17.498Z,67.65
2023-08-10T19:47:46.093Z,67.15
2023-08-10T19:50:14.657Z,67.18
2023-08-10T19:52:44.638Z,66.72
2023-08-10T19:55:13.013Z,66.61
2023-08-10T19:57:41.191Z,66.32
2023-08-10T20:00:14.031Z,67.21
2023-08-10T20:02:47.084Z,67.34
2023-08-10T20:05:15.527Z,67.86
2023-08-10T20:07:45.610Z,67.93
2023-08-10T20:10:14.416Z,68.11
2023-08-10T20:12:42.744Z,67.25
2023-08-10T20:15:12.926Z,67.63
2023-08-10T20:17:41.175Z,67.96
2023-08-10T20:20:12.879Z,68.24
2023-08-10T20:22:41.363Z,68.17
2023-08-10T20:25:12.293Z,68.71
2023-08-10T20:27:41.749Z,68.86
2023-08-10T20:30:10.647Z,69.02
2023-08-10T20:32:38.883Z,69.22
2023-08-10T20:35:08.333Z,69.39
2023-08-10T20:37:36.992Z,69.02
2023-08-10T20:40:06.613Z,69.88
2023-08-10T20:42:36.349Z,70.09
2023-08-10T20:45:05.587Z,70.15
2023-08-10T20:47:34.965Z,69.61
2023-08-10T20:50:05.392Z,69.61
2023-08-10T20:52:34.003Z,69.66
2023-08-10T20:55:02.222Z,69.77
2023-08-10T20:57:30.908Z,69.30
2023-08-10T21:00:00.614Z,70.04
2023-08-10T21:02:29.523Z,70.19
2023-08-10T21:04:58.213Z,69.41
2023-08-10T21:07:31.082Z,69.42
2023-08-10T21:09:59.392Z,69.58
2023-08-10T21:12:28.392Z,69.77
2023-08-10T21:14:56.848Z,70.04
2023-08-10T21:17:26.629Z,70.26
2023-08-10T21:19:55.128Z,69.82
2023-08-10T21:22:23.181Z,69.87
2023-08-10T21:24:51.258Z,70.31
2023-08-10T21:27:19.339Z,70.78
2023-08-10T21:29:48.319Z,71.59
2023-08-10T21:32:16.526Z,71.97
2023-08-10T21:34:46.100Z,71.80
2023-08-10T21:37:14.230Z,71.95
2023-08-10T21:39:42.589Z,71.79
2023-08-10T21:42:10.954Z,72.16
2023-08-10T21:44:39.310Z,72.04
2023-08-10T21:47:07.916Z,71.88
2023-08-10T21:49:36.361Z,72.10
2023-08-10T21:52:06.175Z,71.73
2023-08-10T21:54:34.789Z,72.34
2023-08-10T21:57:03.608Z,72.75
2023-08-10T21:59:32.848Z,72.67
2023-08-10T22:02:01.528Z,72.94
2023-08-10T22:04:29.679Z,73.00
2023-08-10T22:06:58.014Z,72.35
2023-08-10T22:09:28.126Z,71.65
2023-08-10T22:11:56.484Z,72.00
2023-08-10T22:14:25.056Z,71.42
2023-08-10T22:16:53.546Z,72.25
2023-08-10T22:19:21.845Z,72.09
2023-08-10T22:21:50.100Z,72.11
2023-08-10T22:24:18.293Z,72.66
2023-08-10T22:26:47.975Z,72.64
2023-08-10T22:29:16.079Z,72.43
2023-08-10T22:31:44.629Z,72.64
2023-08-10T22:34:13.233Z,72.76
2023-08-10T22:36:41.802Z,72.73
2023-08-10T22:39:10.285Z,72.22
2023-08-10T22:41:38.751Z,72.38
2023-08-10T22:44:09.479Z,72.57
2023-08-10T22:46:38.091Z,73.44
2023-08-10T22:49:06.274Z,72.39
2023-08-10T22:51:34.653Z,72.58
2023-08-10T22:54:04.880Z,72.43
2023-08-10T22:56:34.760Z,72.43
2023-08-10T22:59:03.321Z,72.00
2023-08-10T23:01:33.180Z,71.77
2023-08-10T23:04:01.536Z,71.38
2023-08-10T23:06:29.878Z,71.13
2023-08-10T23:08:58.358Z,71.23
2023-08-10T23:11:26.998Z,71.80
2023-08-10T23:13:55.363Z,71.67
2023-08-10T23:20:14.638Z,71.76
2023-08-10T23:23:13.392Z,72.56
2023-08-10T23:26:08.230Z,74.01
2023-08-10T23:28:36.363Z,73.76
2023-08-10T23:31:05.172Z,73.15
2023-08-10T23:33:33.414Z,72.78
2023-08-10T23:36:01.736Z,73.10
2023-08-10T23:38:31.579Z,72.62
2023-08-10T23:41:01.135Z,72.86
2023-08-10T23:43:29.428Z,73.28
2023-08-10T23:45:57.652Z,73.11
2023-08-10T23:48:26.175Z,73.27
2023-08-10T23:50:54.633Z,73.82
2023-08-10T23:53:23.251Z,73.50
2023-08-10T23:55:53.255Z,73.73
2023-08-10T23:58:37.605Z,73.78
